createdAt,value
2023-05-23T00:01:03.733Z,102243.80
2023-05-23T00:03:33.772Z,102240.20
2023-05-23T00:06:02.596Z,102238.70
2023-05-23T00:08:52.500Z,102245.71
2023-05-23T00:11:29.547Z,102242.76
2023-05-23T00:14:02.275Z,102249.27
2023-05-23T00:16:33.136Z,102247.66
2023-05-23T00:19:12.775Z,102248.40
2023-05-23T00:21:42.082Z,102248.75
2023-05-23T00:24:45.005Z,102249.10
2023-05-23T00:27:55.837Z,102248.63
2023-05-23T00:30:25.569Z,102244.14
2023-05-23T00:32:56.180Z,102241.65
2023-05-23T00:35:49.587Z,102239.32
2023-05-23T00:38:26.521Z,102238.09
2023-05-23T00:40:56.225Z,102233.77
2023-05-23T00:44:07.303Z,102233.27
2023-05-23T00:47:17.730Z,102236.98
2023-05-23T00:50:16.300Z,102234.52
2023-05-23T00:52:59.066Z,102232.48
2023-05-23T00:55:52.246Z,102233.05
2023-05-23T00:58:32.594Z,102242.23
2023-05-23T01:01:14.736Z,102238.58
2023-05-23T01:03:52.302Z,102239.20
2023-05-23T01:06:28.229Z,102235.94
2023-05-23T01:08:57.383Z,102234.58
2023-05-23T01:11:36.445Z,102237.52
2023-05-23T01:14:12.287Z,102241.71
2023-05-23T01:17:26.313Z,102244.19
2023-05-23T01:20:14.323Z,102249.58
2023-05-23T01:23:25.107Z,102247.23
2023-05-23T01:26:43.957Z,102245.13
2023-05-23T01:29:22.810Z,102245.41
2023-05-23T01:32:14.297Z,102245.20
2023-05-23T01:34:48.692Z,102247.51
2023-05-23T01:37:20.610Z,102248.02
2023-05-23T01:40:19.512Z,102250.75
2023-05-23T01:42:49.202Z,102250.36
2023-05-23T01:45:30.376Z,102252.77
2023-05-23T01:48:00.802Z,102247.67
2023-05-23T01:50:30.943Z,102253.10
2023-05-23T01:53:05.082Z,102255.31
2023-05-23T01:55:36.291Z,102250.50
2023-05-23T01:58:09.862Z,102258.02
2023-05-23T02:00:39.806Z,102258.75
2023-05-23T02:03:09.595Z,102261.89
2023-05-23T02:05:40.042Z,102260.05
2023-05-23T02:08:23.572Z,102259.47
2023-05-23T02:10:52.506Z,102266.48
2023-05-23T02:13:21.710Z,102267.67
2023-05-23T02:15:51.433Z,102271.15
2023-05-23T02:18:22.276Z,102271.29
2023-05-23T02:20:55.201Z,102276.83
2023-05-23T02:23:23.774Z,102276.89
2023-05-23T02:25:53.889Z,102273.41
2023-05-23T02:28:22.711Z,102279.60
2023-05-23T02:30:53.862Z,102283.36
2023-05-23T02:33:22.766Z,102285.91
2023-05-23T02:35:52.689Z,102282.02
2023-05-23T02:38:22.617Z,102283.39
2023-05-23T02:40:54.528Z,102279.14
2023-05-23T02:43:25.248Z,102277.88
2023-05-23T02:46:06.383Z,102278.06
2023-05-23T02:48:35.759Z,102278.83
2023-05-23T02:51:15.039Z,102279.85
2023-05-23T02:53:47.112Z,102278.27
2023-05-23T02:56:17.833Z,102278.63
2023-05-23T02:58:46.700Z,102278.27
2023-05-23T03:01:16.825Z,102271.99
2023-05-23T03:03:45.949Z,102276.71
2023-05-23T03:06:19.405Z,102277.17
2023-05-23T03:08:49.614Z,102276.29
2023-05-23T03:11:18.253Z,102276.11
2023-05-23T03:13:47.090Z,102281.36
2023-05-23T03:16:17.796Z,102282.21
2023-05-23T03:18:46.311Z,102281.16
2023-05-23T03:21:18.975Z,102281.58
2023-05-23T03:23:48.188Z,102284.36
2023-05-23T03:26:19.029Z,102279.64
2023-05-23T03:28:51.971Z,102277.97
2023-05-23T03:31:21.021Z,102278.93
2023-05-23T03:33:51.578Z,102277.89
2023-05-23T03:36:24.027Z,102275.99
2023-05-23T03:38:53.633Z,102276.88
2023-05-23T03:41:23.334Z,102278.24
2023-05-23T03:43:54.476Z,102282.33
2023-05-23T03:46:28.293Z,102286.71
2023-05-23T03:49:00.591Z,102286.77
2023-05-23T03:51:31.180Z,102289.63
2023-05-23T03:54:01.135Z,102292.01
2023-05-23T03:56:31.119Z,102291.04
2023-05-23T03:59:01.047Z,102292.86
2023-05-23T04:01:29.893Z,102291.89
2023-05-23T04:04:00.924Z,102294.05
2023-05-23T04:06:31.721Z,102298.69
2023-05-23T04:09:21.647Z,102296.70
2023-05-23T04:11:50.522Z,102299.59
2023-05-23T04:14:34.645Z,102297.35
2023-05-23T04:17:09.629Z,102301.21
2023-05-23T04:19:41.329Z,102300.67
2023-05-23T04:22:14.983Z,102304.45
2023-05-23T04:24:45.097Z,102305.72
2023-05-23T04:27:15.060Z,102307.98
2023-05-23T04:29:44.933Z,102306.87
2023-05-23T04:32:15.372Z,102306.20
2023-05-23T04:34:49.786Z,102305.98
2023-05-23T04:37:23.492Z,102307.55
2023-05-23T04:39:55.630Z,102304.31
2023-05-23T04:42:26.564Z,102307.77
2023-05-23T04:44:57.799Z,102313.42
2023-05-23T04:47:37.184Z,102317.27
2023-05-23T04:50:09.304Z,102316.40
2023-05-23T04:52:37.808Z,102318.58
2023-05-23T04:55:07.152Z,102320.63
2023-05-23T04:57:36.377Z,102322.95
2023-05-23T05:00:35.955Z,102327.17
2023-05-23T05:03:05.438Z,102331.91
2023-05-23T05:05:38.418Z,102335.27
2023-05-23T05:08:14.718Z,102338.52
2023-05-23T05:10:55.442Z,102343.82
2023-05-23T05:13:25.548Z,102345.99
2023-05-23T05:15:59.416Z,102345.15
2023-05-23T05:18:28.123Z,102344.70
2023-05-23T05:21:09.504Z,102341.14
2023-05-23T05:23:37.651Z,102340.77
2023-05-23T05:26:08.888Z,102337.51
2023-05-23T05:28:39.156Z,102338.33
2023-05-23T05:31:10.489Z,102341.38
2023-05-23T05:33:39.619Z,102341.54
2023-05-23T05:36:08.424Z,102341.51
2023-05-23T05:38:40.513Z,102337.15
2023-05-23T05:41:09.656Z,102336.81
2023-05-23T05:43:38.853Z,102330.10
2023-05-23T05:46:06.939Z,102322.77
2023-05-23T05:48:36.891Z,102321.73
2023-05-23T05:51:05.495Z,102320.81
2023-05-23T05:53:34.254Z,102319.38
2023-05-23T05:56:03.673Z,102314.08
2023-05-23T05:58:35.028Z,102315.91
2023-05-23T06:01:03.959Z,102323.20
2023-05-23T06:03:32.928Z,102325.84
2023-05-23T06:06:05.556Z,102326.56
2023-05-23T06:08:34.635Z,102328.32
2023-05-23T06:11:05.617Z,102331.51
2023-05-23T06:13:34.802Z,102331.77
2023-05-23T06:16:07.691Z,102335.09
2023-05-23T06:18:36.328Z,102334.78
2023-05-23T06:21:06.379Z,102340.44
2023-05-23T06:23:35.578Z,102344.06
2023-05-23T06:26:08.671Z,102345.29
2023-05-23T06:28:41.053Z,102346.95
2023-05-23T06:31:10.659Z,102346.61
2023-05-23T06:33:40.885Z,102345.63
2023-05-23T06:36:29.622Z,102340.70
2023-05-23T06:38:59.431Z,102340.12
2023-05-23T06:41:29.616Z,102338.07
2023-05-23T06:43:59.546Z,102341.60
2023-05-23T06:46:30.490Z,102339.05
2023-05-23T06:49:13.257Z,102342.08
2023-05-23T06:51:43.332Z,102340.38
2023-05-23T06:54:12.274Z,102341.50
2023-05-23T06:56:51.522Z,102342.03
2023-05-23T06:59:20.084Z,102340.90
2023-05-23T07:01:56.284Z,102341.95
2023-05-23T07:04:25.703Z,102344.82
2023-05-23T07:06:55.798Z,102347.91
2023-05-23T07:09:28.306Z,102344.98
2023-05-23T07:11:58.058Z,102342.02
2023-05-23T07:14:29.205Z,102344.42
2023-05-23T07:16:57.914Z,102345.10
2023-05-23T07:19:26.348Z,102350.42
2023-05-23T07:21:55.319Z,102348.57
2023-05-23T07:24:25.381Z,102348.77
2023-05-23T07:26:55.722Z,102350.90
2023-05-23T07:29:24.874Z,102349.73
2023-05-23T07:31:54.369Z,102353.50
2023-05-23T07:34:24.032Z,102355.09
2023-05-23T07:36:52.811Z,102354.59
2023-05-23T07:39:24.762Z,102353.33
2023-05-23T07:41:55.451Z,102351.71
2023-05-23T07:44:25.304Z,102352.35
2023-05-23T07:46:54.785Z,102360.02
2023-05-23T07:49:25.408Z,102361.25
2023-05-23T07:52:15.449Z,102364.68
2023-05-23T07:54:54.284Z,102366.89
2023-05-23T07:57:26.428Z,102368.58
2023-05-23T07:59:54.666Z,102364.75
2023-05-23T08:02:26.464Z,102364.11
2023-05-23T08:05:07.788Z,102361.87
2023-05-23T08:07:38.810Z,102363.63
2023-05-23T08:10:21.774Z,102360.56
2023-05-23T08:12:50.526Z,102360.20
2023-05-23T08:15:24.576Z,102362.38
2023-05-23T08:18:09.215Z,102361.25
2023-05-23T08:21:08.800Z,102357.98
2023-05-23T08:23:37.868Z,102353.09
2023-05-23T08:26:38.133Z,102345.61
2023-05-23T08:29:38.101Z,102346.34
2023-05-23T08:32:16.526Z,102354.94
2023-05-23T08:34:55.298Z,102352.81
2023-05-23T08:38:04.370Z,102354.48
2023-05-23T08:40:43.533Z,102355.88
2023-05-23T08:43:15.433Z,102356.19
2023-05-23T08:46:04.525Z,102359.87
2023-05-23T08:48:56.945Z,102357.64
2023-05-23T08:51:30.230Z,102362.17
2023-05-23T08:54:13.754Z,102363.67
2023-05-23T08:57:11.748Z,102367.01
2023-05-23T08:59:50.156Z,102375.41
2023-05-23T09:02:21.423Z,102374.86
2023-05-23T09:05:03.521Z,102371.38
2023-05-23T09:07:38.902Z,102366.49
2023-05-23T09:10:50.463Z,102368.09
2023-05-23T09:13:31.498Z,102369.54
2023-05-23T09:16:10.789Z,102368.44
2023-05-23T09:19:06.769Z,102369.66
2023-05-23T09:21:50.385Z,102370.83
2023-05-23T09:24:47.345Z,102368.28
2023-05-23T09:27:56.877Z,102368.14
2023-05-23T09:30:42.145Z,102370.72
2023-05-23T09:33:53.044Z,102374.46
2023-05-23T09:36:33.168Z,102375.80
2023-05-23T09:39:06.304Z,102371.65
2023-05-23T09:41:37.792Z,102369.82
2023-05-23T09:44:37.458Z,102363.98
2023-05-23T09:47:29.742Z,102369.10
2023-05-23T09:50:18.725Z,102364.57
2023-05-23T09:53:00.411Z,102363.59
2023-05-23T09:55:32.001Z,102364.37
2023-05-23T09:58:01.809Z,102364.25
2023-05-23T10:01:04.201Z,102363.95
2023-05-23T10:03:47.050Z,102362.17
2023-05-23T10:06:30.763Z,102361.81
2023-05-23T10:09:05.677Z,102365.20
2023-05-23T10:11:46.735Z,102365.45
2023-05-23T10:14:26.585Z,102359.19
2023-05-23T10:17:12.467Z,102364.21
2023-05-23T10:19:55.517Z,102359.63
2023-05-23T10:22:33.350Z,102361.62
2023-05-23T10:25:06.377Z,102367.25
2023-05-23T10:27:44.152Z,102366.52
2023-05-23T10:30:45.241Z,102361.16
2023-05-23T10:33:43.195Z,102366.62
2023-05-23T10:37:02.746Z,102362.58
2023-05-23T10:40:11.945Z,102361.98
2023-05-23T10:43:23.635Z,102368.88
2023-05-23T10:46:14.712Z,102372.02
2023-05-23T10:49:15.540Z,102371.00
2023-05-23T10:52:07.481Z,102375.33
2023-05-23T10:55:17.344Z,102378.21
2023-05-23T10:58:27.019Z,102375.99
2023-05-23T11:01:36.774Z,102383.57
2023-05-23T11:04:31.991Z,102380.13
2023-05-23T11:07:24.490Z,102377.24
2023-05-23T11:10:35.890Z,102377.59
2023-05-23T11:13:11.247Z,102378.61
2023-05-23T11:15:45.973Z,102374.09
2023-05-23T11:18:48.731Z,102371.20
2023-05-23T11:21:30.484Z,102368.48
2023-05-23T11:24:39.653Z,102371.98
2023-05-23T11:27:13.429Z,102371.45
2023-05-23T11:29:45.126Z,102372.89
2023-05-23T11:32:36.581Z,102368.34
2023-05-23T11:35:10.922Z,102367.83
2023-05-23T11:37:48.153Z,102368.48
2023-05-23T11:40:30.738Z,102370.42
2023-05-23T11:43:11.408Z,102365.45
2023-05-23T11:45:44.268Z,102367.83
2023-05-23T11:48:16.918Z,102368.16
2023-05-23T11:51:07.156Z,102368.73
2023-05-23T11:53:45.421Z,102367.63
2023-05-23T11:56:18.891Z,102366.94
2023-05-23T11:58:49.101Z,102357.54
2023-05-23T12:01:31.829Z,102359.40
2023-05-23T12:04:04.362Z,102356.75
2023-05-23T12:07:04.207Z,102354.77
2023-05-23T12:10:07.895Z,102354.48
2023-05-23T12:12:57.030Z,102354.83
2023-05-23T12:15:53.249Z,102352.99
2023-05-23T12:18:42.169Z,102348.90
2023-05-23T12:21:13.787Z,102352.35
2023-05-23T12:24:05.408Z,102354.30
2023-05-23T12:26:57.020Z,102351.42
2023-05-23T12:30:15.337Z,102353.38
2023-05-23T12:33:06.483Z,102347.21
2023-05-23T12:35:38.425Z,102345.19
2023-05-23T12:38:20.223Z,102344.89
2023-05-23T12:41:20.434Z,102337.26
2023-05-23T12:44:05.697Z,102339.40
2023-05-23T12:46:37.006Z,102332.70
2023-05-23T12:49:12.578Z,102330.70
2023-05-23T12:51:41.981Z,102331.17
2023-05-23T12:54:11.188Z,102328.14
2023-05-23T12:56:43.750Z,102331.85
2023-05-23T12:59:13.156Z,102332.60
2023-05-23T13:01:53.321Z,102329.74
2023-05-23T13:04:25.010Z,102329.33
2023-05-23T13:06:55.812Z,102333.02
2023-05-23T13:09:47.726Z,102333.95
2023-05-23T13:12:19.098Z,102334.23
2023-05-23T13:14:48.914Z,102329.52
2023-05-23T13:17:18.093Z,102335.00
2023-05-23T13:19:47.430Z,102334.25
2023-05-23T13:22:21.915Z,102333.67
2023-05-23T13:24:54.509Z,102332.30
2023-05-23T13:27:37.114Z,102334.13
2023-05-23T13:30:08.300Z,102335.92
2023-05-23T13:32:57.853Z,102336.30
2023-05-23T13:35:26.652Z,102341.44
2023-05-23T13:37:57.995Z,102341.63
2023-05-23T13:40:26.778Z,102334.95
2023-05-23T13:43:05.113Z,102335.81
2023-05-23T13:45:35.410Z,102333.50
2023-05-23T13:48:25.931Z,102334.37
2023-05-23T13:51:00.497Z,102331.91
2023-05-23T13:53:32.289Z,102333.99
2023-05-23T13:56:02.453Z,102337.30
2023-05-23T13:58:32.818Z,102330.36
2023-05-23T14:01:03.565Z,102328.90
2023-05-23T14:03:33.202Z,102329.23
2023-05-23T14:06:01.739Z,102325.02
2023-05-23T14:08:33.082Z,102323.30
2023-05-23T14:11:06.841Z,102326.80
2023-05-23T14:13:35.963Z,102325.41
2023-05-23T14:16:04.614Z,102328.17
2023-05-23T14:18:34.536Z,102328.54
2023-05-23T14:21:04.646Z,102331.64
2023-05-23T14:23:33.331Z,102327.80
2023-05-23T14:26:02.509Z,102322.58
2023-05-23T14:28:44.415Z,102321.39
2023-05-23T14:31:17.912Z,102315.81
2023-05-23T14:33:47.258Z,102313.02
2023-05-23T14:36:19.139Z,102307.55
2023-05-23T14:38:48.089Z,102302.15
2023-05-23T14:41:16.630Z,102305.77
2023-05-23T14:43:47.859Z,102302.27
2023-05-23T14:46:18.900Z,102302.67
2023-05-23T14:48:48.550Z,102301.76
2023-05-23T14:51:31.099Z,102300.20
2023-05-23T14:54:17.569Z,102298.04
2023-05-23T14:56:51.288Z,102293.70
2023-05-23T14:59:22.426Z,102300.83
2023-05-23T15:01:51.191Z,102296.70
2023-05-23T15:04:24.397Z,102295.16
2023-05-23T15:07:00.166Z,102296.33
2023-05-23T15:09:30.118Z,102294.81
2023-05-23T15:12:00.972Z,102298.95
2023-05-23T15:14:33.887Z,102294.37
2023-05-23T15:17:08.981Z,102296.85
2023-05-23T15:19:45.795Z,102299.46
2023-05-23T15:22:31.174Z,102290.44
2023-05-23T15:25:04.676Z,102290.27
2023-05-23T15:27:45.493Z,102292.75
2023-05-23T15:30:19.289Z,102291.45
2023-05-23T15:33:13.343Z,102291.89
2023-05-23T15:35:42.989Z,102290.42
2023-05-23T15:38:20.696Z,102284.70
2023-05-23T15:41:23.233Z,102284.19
2023-05-23T15:44:07.012Z,102283.90
2023-05-23T15:46:59.072Z,102284.94
2023-05-23T15:50:02.769Z,102282.80
2023-05-23T15:53:15.726Z,102285.05
2023-05-23T15:56:19.518Z,102280.90
2023-05-23T15:58:58.485Z,102283.41
2023-05-23T16:01:27.109Z,102280.16
2023-05-23T16:03:58.157Z,102284.44
2023-05-23T16:06:29.223Z,102284.73
2023-05-23T16:09:19.100Z,102280.91
2023-05-23T16:12:09.016Z,102281.67
2023-05-23T16:14:58.743Z,102280.11
2023-05-23T16:17:30.829Z,102271.03
2023-05-23T16:20:31.735Z,102270.95
2023-05-23T16:23:10.939Z,102267.34
2023-05-23T16:25:49.564Z,102261.71
2023-05-23T16:28:19.003Z,102263.13
2023-05-23T16:31:26.427Z,102262.16
2023-05-23T16:34:24.324Z,102253.68
2023-05-23T16:37:16.106Z,102256.29
2023-05-23T16:39:45.168Z,102247.77
2023-05-23T16:42:22.917Z,102243.90
2023-05-23T16:44:54.875Z,102243.22
2023-05-23T16:47:24.940Z,102237.23
2023-05-23T16:49:54.826Z,102242.08
2023-05-23T16:52:24.303Z,102237.29
2023-05-23T16:54:56.627Z,102246.50
2023-05-23T16:57:43.521Z,102246.24
2023-05-23T17:00:23.458Z,102241.72
2023-05-23T17:03:14.434Z,102243.38
2023-05-23T17:05:49.328Z,102240.46
2023-05-23T17:08:20.019Z,102235.55
2023-05-23T17:10:59.123Z,102229.73
2023-05-23T17:13:37.920Z,102231.80
2023-05-23T17:16:20.246Z,102227.79
2023-05-23T17:19:00.862Z,102229.52
2023-05-23T17:21:48.550Z,102230.66
2023-05-23T17:24:39.712Z,102240.47
2023-05-23T17:27:11.310Z,102234.29
2023-05-23T17:29:53.522Z,102236.00
2023-05-23T17:32:35.449Z,102236.89
2023-05-23T17:35:26.342Z,102234.13
2023-05-23T17:37:59.116Z,102233.20
2023-05-23T17:40:35.220Z,102238.92
2023-05-23T17:43:09.098Z,102238.20
2023-05-23T17:46:00.106Z,102233.44
2023-05-23T17:49:02.986Z,102234.95
2023-05-23T17:51:36.821Z,102235.96
2023-05-23T17:54:06.563Z,102237.88
2023-05-23T17:57:08.596Z,102232.34
2023-05-23T17:59:58.901Z,102230.95
2023-05-23T18:02:35.085Z,102229.14
2023-05-23T18:05:26.388Z,102227.23
2023-05-23T18:08:05.250Z,102232.41
2023-05-23T18:10:48.220Z,102235.46
2023-05-23T18:13:32.053Z,102231.80
2023-05-23T18:16:26.009Z,102230.63
2023-05-23T18:18:57.936Z,102232.14
2023-05-23T18:21:36.252Z,102232.66
2023-05-23T18:24:27.440Z,102228.82
2023-05-23T18:27:17.750Z,102222.71
2023-05-23T18:29:52.335Z,102222.83
2023-05-23T18:32:25.504Z,102222.93
2023-05-23T18:35:29.709Z,102225.80
2023-05-23T18:38:08.870Z,102225.52
2023-05-23T18:41:14.776Z,102218.34
2023-05-23T18:44:05.846Z,102218.15
2023-05-23T18:46:57.334Z,102218.42
2023-05-23T18:49:59.861Z,102215.67
2023-05-23T18:52:44.803Z,102218.39
2023-05-23T18:55:13.498Z,102213.98
2023-05-23T18:58:01.639Z,102210.29
2023-05-23T19:01:11.014Z,102210.29
2023-05-23T19:03:46.545Z,102210.87
2023-05-23T19:06:28.321Z,102217.67
2023-05-23T19:09:12.148Z,102218.73
2023-05-23T19:12:03.965Z,102215.88
2023-05-23T19:14:53.080Z,102213.55
2023-05-23T19:17:34.176Z,102217.40
2023-05-23T19:20:26.092Z,102219.23
2023-05-23T19:23:30.822Z,102219.71
2023-05-23T19:26:41.667Z,102220.13
2023-05-23T19:29:47.604Z,102218.31
2023-05-23T19:32:30.654Z,102223.25
2023-05-23T19:35:14.753Z,102232.14
2023-05-23T19:38:05.359Z,102231.77
2023-05-23T19:40:43.455Z,102233.70
2023-05-23T19:43:45.151Z,102232.84
2023-05-23T19:46:15.863Z,102237.14
2023-05-23T19:49:21.970Z,102235.71
2023-05-23T19:52:07.906Z,102238.17
2023-05-23T19:55:03.659Z,102242.66
2023-05-23T19:57:55.714Z,102243.68
2023-05-23T20:00:50.706Z,102246.54
2023-05-23T20:03:44.567Z,102248.11
2023-05-23T20:06:14.437Z,102244.77
2023-05-23T20:09:17.313Z,102239.45
2023-05-23T20:12:08.241Z,102235.19
2023-05-23T20:14:58.137Z,102235.90
2023-05-23T20:17:40.084Z,102243.94
2023-05-23T20:20:31.911Z,102248.00
2023-05-23T20:23:40.852Z,102255.59
2023-05-23T20:26:33.762Z,102254.64
2023-05-23T20:29:23.673Z,102252.80
2023-05-23T20:32:23.561Z,102251.40
2023-05-23T20:35:34.433Z,102253.11
2023-05-23T20:38:26.382Z,102257.64
2023-05-23T20:41:37.039Z,102261.95
2023-05-23T20:44:26.160Z,102259.91
2023-05-23T20:47:36.072Z,102255.33
2023-05-23T20:50:26.460Z,102250.81
2023-05-23T20:53:08.880Z,102250.22
2023-05-23T20:56:19.788Z,102249.41
2023-05-23T20:59:29.120Z,102248.36
2023-05-23T21:02:18.631Z,102247.95
2023-05-23T21:05:29.602Z,102248.92
2023-05-23T21:08:28.344Z,102246.70
2023-05-23T21:11:08.293Z,102252.71
2023-05-23T21:14:18.278Z,102251.18
2023-05-23T21:17:19.010Z,102259.58
2023-05-23T21:20:30.051Z,102263.13
2023-05-23T21:23:19.914Z,102267.20
2023-05-23T21:26:24.688Z,102261.22
2023-05-23T21:29:36.927Z,102261.73
2023-05-23T21:32:49.787Z,102255.63
2023-05-23T21:35:54.623Z,102255.45
2023-05-23T21:38:48.410Z,102251.98
2023-05-23T21:41:59.259Z,102254.93
2023-05-23T21:44:28.380Z,102257.05
2023-05-23T21:47:31.162Z,102254.51
2023-05-23T21:50:25.969Z,102257.42
2023-05-23T21:52:58.899Z,102262.23
2023-05-23T21:55:49.721Z,102263.86
2023-05-23T21:58:34.550Z,102262.77
2023-05-23T22:01:36.590Z,102256.70
2023-05-23T22:04:14.958Z,102259.94
2023-05-23T22:06:48.014Z,102258.98
2023-05-23T22:09:52.349Z,102261.79
2023-05-23T22:12:42.316Z,102261.36
2023-05-23T22:15:20.404Z,102261.08
2023-05-23T22:18:19.252Z,102258.72
2023-05-23T22:21:16.014Z,102253.11
2023-05-23T22:24:08.427Z,102257.13
2023-05-23T22:27:00.842Z,102260.44
2023-05-23T22:30:10.737Z,102258.17
2023-05-23T22:32:53.711Z,102255.43
2023-05-23T22:36:03.540Z,102258.92
2023-05-23T22:38:55.448Z,102259.02
2023-05-23T22:42:06.423Z,102255.87
2023-05-23T22:45:15.621Z,102255.56
2023-05-23T22:48:17.935Z,102258.52
2023-05-23T22:51:22.051Z,102257.88
2023-05-23T22:54:02.950Z,102257.02
2023-05-23T22:56:37.102Z,102258.20
2023-05-23T22:59:47.942Z,102253.42
2023-05-23T23:02:45.103Z,102250.44
2023-05-23T23:05:57.561Z,102246.91
2023-05-23T23:08:51.759Z,102245.73
2023-05-23T23:11:43.304Z,102249.85
2023-05-23T23:14:44.066Z,102248.00
2023-05-23T23:17:53.272Z,102250.96
2023-05-23T23:20:34.188Z,102248.52
2023-05-23T23:23:43.982Z,102242.98
2023-05-23T23:26:24.069Z,102242.88
2023-05-23T23:29:20.924Z,102245.52
2023-05-23T23:32:25.695Z,102248.09
2023-05-23T23:35:07.576Z,102250.52
2023-05-23T23:38:10.728Z,102252.29
2023-05-23T23:40:59.505Z,102250.55
2023-05-23T23:43:33.201Z,102248.75
2023-05-23T23:46:44.287Z,102248.71
2023-05-23T23:49:45.091Z,102242.66
2023-05-23T23:52:48.038Z,102235.33
2023-05-23T23:55:37.919Z,102231.48
2023-05-23T23:58:27.813Z,102230.66
